sensor_id;sensor_type;location;lat;lon;timestamp;pressure;altitude;pressure_sealevel;temperature;humidity
20630;BME280;17386;43.846;25.950;2024-01-30T00:01:35;103915.53;;;2.93;100.00
20630;BME280;17386;43.846;25.950;2024-01-30T00:04:00;103909.44;;;2.94;100.00
20630;BME280;17386;43.846;25.950;2024-01-30T00:06:26;103905.88;;;2.92;100.00
20630;BME280;17386;43.846;25.950;2024-01-30T00:08:51;103907.81;;;2.96;100.00
20630;BME280;17386;43.846;25.950;2024-01-30T00:11:17;103915.00;;;3.00;100.00
20630;BME280;17386;43.846;25.950;2024-01-30T00:13:42;103911.63;;;3.03;100.00
20630;BME280;17386;43.846;25.950;2024-01-30T00:16:07;103909.19;;;3.08;100.00
20630;BME280;17386;43.846;25.950;2024-01-30T00:18:34;103907.41;;;3.07;100.00
20630;BME280;17386;43.846;25.950;2024-01-30T00:20:59;103905.00;;;3.11;100.00
20630;BME280;17386;43.846;25.950;2024-01-30T00:23:25;103912.88;;;3.11;100.00
20630;BME280;17386;43.846;25.950;2024-01-30T00:25:50;103900.47;;;3.09;100.00
20630;BME280;17386;43.846;25.950;2024-01-30T00:28:16;103908.09;;;3.03;100.00
20630;BME280;17386;43.846;25.950;2024-01-30T00:30:41;103915.09;;;3.02;100.00
20630;BME280;17386;43.846;25.950;2024-01-30T00:33:07;103911.63;;;3.03;100.00
20630;BME280;17386;43.846;25.950;2024-01-30T00:35:33;103904.72;;;3.05;100.00
20630;BME280;17386;43.846;25.950;2024-01-30T00:37:58;103911.63;;;3.03;100.00
20630;BME280;17386;43.846;25.950;2024-01-30T00:40:24;103909.06;;;3.05;100.00
20630;BME280;17386;43.846;25.950;2024-01-30T00:42:49;103905.31;;;2.99;100.00
20630;BME280;17386;43.846;25.950;2024-01-30T00:45:15;103913.13;;;2.98;100.00
20630;BME280;17386;43.846;25.950;2024-01-30T00:47:41;103909.56;;;2.96;100.00
20630;BME280;17386;43.846;25.950;2024-01-30T00:50:07;103904.28;;;2.96;100.00
20630;BME280;17386;43.846;25.950;2024-01-30T00:52:32;103895.13;;;2.88;100.00
20630;BME280;17386;43.846;25.950;2024-01-30T00:54:59;103908.13;;;2.85;100.00
20630;BME280;17386;43.846;25.950;2024-01-30T00:57:24;103905.44;;;2.83;100.00
20630;BME280;17386;43.846;25.950;2024-01-30T00:59:50;103905.44;;;2.83;100.00
20630;BME280;17386;43.846;25.950;2024-01-30T01:02:15;103897.56;;;2.83;100.00
20630;BME280;17386;43.846;25.950;2024-01-30T01:04:42;103897.56;;;2.83;100.00
20630;BME280;17386;43.846;25.950;2024-01-30T01:07:07;103899.19;;;2.81;100.00
20630;BME280;17386;43.846;25.950;2024-01-30T01:09:33;103895.78;;;2.82;100.00
20630;BME280;17386;43.846;25.950;2024-01-30T01:11:58;103889.81;;;2.86;100.00
20630;BME280;17386;43.846;25.950;2024-01-30T01:14:24;103887.06;;;2.83;100.00
20630;BME280;17386;43.846;25.950;2024-01-30T01:16:49;103883.94;;;2.72;100.00
20630;BME280;17386;43.846;25.950;2024-01-30T01:19:14;103885.19;;;2.81;100.00
20630;BME280;17386;43.846;25.950;2024-01-30T01:21:40;103895.06;;;2.86;100.00
20630;BME280;17386;43.846;25.950;2024-01-30T01:24:05;103877.03;;;2.74;100.00
20630;BME280;17386;43.846;25.950;2024-01-30T01:26:31;103878.84;;;2.76;100.00
20630;BME280;17386;43.846;25.950;2024-01-30T01:28:56;103888.50;;;2.77;100.00
20630;BME280;17386;43.846;25.950;2024-01-30T01:31:21;103893.88;;;2.80;100.00
20630;BME280;17386;43.846;25.950;2024-01-30T01:33:50;103892.38;;;2.85;99.91
20630;BME280;17386;43.846;25.950;2024-01-30T01:36:15;103893.56;;;2.91;99.83
20630;BME280;17386;43.846;25.950;2024-01-30T01:38:40;103890.16;;;2.94;99.36
20630;BME280;17386;43.846;25.950;2024-01-30T01:41:06;103888.19;;;2.88;97.91
20630;BME280;17386;43.846;25.950;2024-01-30T01:43:31;103895.28;;;2.91;98.02
20630;BME280;17386;43.846;25.950;2024-01-30T01:45:57;103886.53;;;2.90;97.46
20630;BME280;17386;43.846;25.950;2024-01-30T01:48:22;103895.91;;;2.85;97.11
20630;BME280;17386;43.846;25.950;2024-01-30T01:50:48;103899.72;;;2.92;96.52
20630;BME280;17386;43.846;25.950;2024-01-30T01:53:14;103897.97;;;2.92;96.28
20630;BME280;17386;43.846;25.950;2024-01-30T01:55:40;103899.66;;;2.90;96.14
20630;BME280;17386;43.846;25.950;2024-01-30T01:58:07;103900.38;;;2.88;96.22
20630;BME280;17386;43.846;25.950;2024-01-30T02:00:34;103895.59;;;2.97;96.22
20630;BME280;17386;43.846;25.950;2024-01-30T02:03:02;103903.78;;;2.85;95.46
20630;BME280;17386;43.846;25.950;2024-01-30T02:05:29;103898.03;;;2.94;95.70
20630;BME280;17386;43.846;25.950;2024-01-30T02:07:56;103901.81;;;2.81;95.47
20630;BME280;17386;43.846;25.950;2024-01-30T02:10:21;103899.44;;;2.86;95.32
20630;BME280;17386;43.846;25.950;2024-01-30T02:12:48;103889.28;;;2.93;95.36
20630;BME280;17386;43.846;25.950;2024-01-30T02:15:13;103890.94;;;2.91;95.14
20630;BME280;17386;43.846;25.950;2024-01-30T02:17:39;103891.72;;;2.89;95.23
20630;BME280;17386;43.846;25.950;2024-01-30T02:20:04;103899.50;;;2.87;95.02
20630;BME280;17386;43.846;25.950;2024-01-30T02:22:32;103899.72;;;2.92;95.10
20630;BME280;17386;43.846;25.950;2024-01-30T02:24:59;103895.06;;;2.86;94.83
20630;BME280;17386;43.846;25.950;2024-01-30T02:27:24;103884.78;;;2.91;95.00
20630;BME280;17386;43.846;25.950;2024-01-30T02:29:50;103895.72;;;3.00;95.00
20630;BME280;17386;43.846;25.950;2024-01-30T02:32:15;103891.16;;;2.96;94.76
20630;BME280;17386;43.846;25.950;2024-01-30T02:34:41;103892.34;;;3.03;94.45
20630;BME280;17386;43.846;25.950;2024-01-30T02:37:06;103886.44;;;3.08;94.16
20630;BME280;17386;43.846;25.950;2024-01-30T02:39:32;103885.47;;;3.06;94.04
20630;BME280;17386;43.846;25.950;2024-01-30T02:41:57;103883.97;;;3.11;94.12
20630;BME280;17386;43.846;25.950;2024-01-30T02:44:23;103881.97;;;3.06;94.06
20630;BME280;17386;43.846;25.950;2024-01-30T02:46:48;103880.66;;;2.96;94.25
20630;BME280;17386;43.846;25.950;2024-01-30T02:49:13;103883.63;;;3.04;94.62
20630;BME280;17386;43.846;25.950;2024-01-30T02:51:39;103879.41;;;3.07;94.33
20630;BME280;17386;43.846;25.950;2024-01-30T02:54:04;103883.19;;;3.14;94.40
20630;BME280;17386;43.846;25.950;2024-01-30T02:56:29;103873.75;;;3.17;93.92
20630;BME280;17386;43.846;25.950;2024-01-30T02:58:55;103874.75;;;3.21;93.72
20630;BME280;17386;43.846;25.950;2024-01-30T03:01:20;103871.28;;;3.22;93.65
20630;BME280;17386;43.846;25.950;2024-01-30T03:03:46;103881.00;;;3.04;93.48
20630;BME280;17386;43.846;25.950;2024-01-30T03:06:11;103870.78;;;3.10;93.14
20630;BME280;17386;43.846;25.950;2024-01-30T03:08:36;103883.13;;;3.12;93.02
20630;BME280;17386;43.846;25.950;2024-01-30T03:11:02;103872.75;;;3.15;93.15
20630;BME280;17386;43.846;25.950;2024-01-30T03:13:28;103875.75;;;3.23;92.69
20630;BME280;17386;43.846;25.950;2024-01-30T03:15:53;103869.56;;;3.22;92.35
20630;BME280;17386;43.846;25.950;2024-01-30T03:18:19;103867.72;;;3.20;91.97
20630;BME280;17386;43.846;25.950;2024-01-30T03:20:44;103872.06;;;3.19;92.12
20630;BME280;17386;43.846;25.950;2024-01-30T03:23:12;103868.44;;;3.16;92.10
20630;BME280;17386;43.846;25.950;2024-01-30T03:25:37;103864.13;;;3.18;91.79
20630;BME280;17386;43.846;25.950;2024-01-30T03:28:03;103864.19;;;3.19;91.68
20630;BME280;17386;43.846;25.950;2024-01-30T03:30:28;103863.16;;;3.16;91.47
20630;BME280;17386;43.846;25.950;2024-01-30T03:32:54;103871.06;;;3.16;91.54
20630;BME280;17386;43.846;25.950;2024-01-30T03:35:19;103864.81;;;3.14;91.27
20630;BME280;17386;43.846;25.950;2024-01-30T03:37:45;103862.63;;;3.04;91.16
20630;BME280;17386;43.846;25.950;2024-01-30T03:40:10;103850.56;;;3.09;91.25
20630;BME280;17386;43.846;25.950;2024-01-30T03:42:36;103855.69;;;3.06;91.16
20630;BME280;17386;43.846;25.950;2024-01-30T03:45:01;103858.03;;;2.99;91.13
20630;BME280;17386;43.846;25.950;2024-01-30T03:47:27;103857.06;;;2.97;91.76
20630;BME280;17386;43.846;25.950;2024-01-30T03:49:53;103852.84;;;3.01;91.85
20630;BME280;17386;43.846;25.950;2024-01-30T03:52:18;103854.78;;;3.05;91.61
20630;BME280;17386;43.846;25.950;2024-01-30T03:54:44;103854.19;;;3.11;91.66
20630;BME280;17386;43.846;25.950;2024-01-30T03:57:09;103853.13;;;3.07;91.51
20630;BME280;17386;43.846;25.950;2024-01-30T03:59:34;103855.00;;;3.10;91.13
20630;BME280;17386;43.846;25.950;2024-01-30T04:02:00;103856.03;;;3.13;91.33
20630;BME280;17386;43.846;25.950;2024-01-30T04:04:25;103860.38;;;3.13;91.23
20630;BME280;17386;43.846;25.950;2024-01-30T04:06:51;103859.09;;;3.03;91.48
20630;BME280;17386;43.846;25.950;2024-01-30T04:09:16;103859.22;;;3.06;91.68
20630;BME280;17386;43.846;25.950;2024-01-30T04:11:42;103861.91;;;3.08;91.67
20630;BME280;17386;43.846;25.950;2024-01-30T04:14:08;103858.59;;;3.12;91.37
20630;BME280;17386;43.846;25.950;2024-01-30T04:16:33;103871.22;;;3.20;91.45
20630;BME280;17386;43.846;25.950;2024-01-30T04:18:59;103854.50;;;3.18;91.36
20630;BME280;17386;43.846;25.950;2024-01-30T04:21:24;103876.72;;;3.25;91.03
20630;BME280;17386;43.846;25.950;2024-01-30T04:23:51;103870.34;;;3.20;91.25
20630;BME280;17386;43.846;25.950;2024-01-30T04:26:16;103872.19;;;3.22;91.34
20630;BME280;17386;43.846;25.950;2024-01-30T04:28:43;103868.94;;;3.28;91.32
20630;BME280;17386;43.846;25.950;2024-01-30T04:31:09;103865.41;;;3.27;91.56
20630;BME280;17386;43.846;25.950;2024-01-30T04:33:34;103871.84;;;3.34;91.62
20630;BME280;17386;43.846;25.950;2024-01-30T04:36:00;103873.38;;;3.29;91.05
20630;BME280;17386;43.846;25.950;2024-01-30T04:38:25;103878.63;;;3.29;90.92
20630;BME280;17386;43.846;25.950;2024-01-30T04:40:50;103870.50;;;3.23;90.98
20630;BME280;17386;43.846;25.950;2024-01-30T04:43:16;103869.56;;;3.22;91.04
20630;BME280;17386;43.846;25.950;2024-01-30T04:45:41;103870.50;;;3.23;90.95
20630;BME280;17386;43.846;25.950;2024-01-30T04:48:07;103871.28;;;3.22;91.10
20630;BME280;17386;43.846;25.950;2024-01-30T04:50:32;103877.09;;;3.15;91.15
20630;BME280;17386;43.846;25.950;2024-01-30T04:52:58;103879.28;;;3.04;90.96
20630;BME280;17386;43.846;25.950;2024-01-30T04:55:23;103877.09;;;3.15;90.99
20630;BME280;17386;43.846;25.950;2024-01-30T04:57:49;103873.53;;;3.13;90.78
20630;BME280;17386;43.846;25.950;2024-01-30T05:00:14;103870.50;;;3.04;90.90
20630;BME280;17386;43.846;25.950;2024-01-30T05:02:40;103872.00;;;2.98;91.24
20630;BME280;17386;43.846;25.950;2024-01-30T05:05:05;103874.84;;;3.03;91.18
20630;BME280;17386;43.846;25.950;2024-01-30T05:07:31;103881.84;;;3.03;91.50
20630;BME280;17386;43.846;25.950;2024-01-30T05:09:56;103884.78;;;2.91;92.02
20630;BME280;17386;43.846;25.950;2024-01-30T05:12:22;103885.56;;;2.88;92.82
20630;BME280;17386;43.846;25.950;2024-01-30T05:14:47;103880.16;;;2.85;93.02
20630;BME280;17386;43.846;25.950;2024-01-30T05:17:12;103879.91;;;2.81;93.43
20630;BME280;17386;43.846;25.950;2024-01-30T05:19:38;103882.41;;;2.78;93.91
20630;BME280;17386;43.846;25.950;2024-01-30T05:22:04;103880.28;;;2.69;93.98
20630;BME280;17386;43.846;25.950;2024-01-30T05:24:29;103884.28;;;2.61;94.30
20630;BME280;17386;43.846;25.950;2024-01-30T05:26:54;103885.53;;;2.51;94.94
20630;BME280;17386;43.846;25.950;2024-01-30T05:29:20;103882.63;;;2.45;95.19
20630;BME280;17386;43.846;25.950;2024-01-30T05:31:45;103886.84;;;2.41;95.80
20630;BME280;17386;43.846;25.950;2024-01-30T05:34:10;103887.13;;;2.30;96.34
20630;BME280;17386;43.846;25.950;2024-01-30T05:36:36;103882.78;;;2.30;96.70
20630;BME280;17386;43.846;25.950;2024-01-30T05:39:01;103888.03;;;2.30;96.97
20630;BME280;17386;43.846;25.950;2024-01-30T05:41:27;103892.84;;;2.21;97.81
20630;BME280;17386;43.846;25.950;2024-01-30T05:43:53;103893.88;;;2.07;98.11
20630;BME280;17386;43.846;25.950;2024-01-30T05:46:18;103903.31;;;2.03;98.04
20630;BME280;17386;43.846;25.950;2024-01-30T05:48:44;103896.53;;;1.90;98.13
20630;BME280;17386;43.846;25.950;2024-01-30T05:51:09;103898.28;;;1.90;98.07
20630;BME280;17386;43.846;25.950;2024-01-30T05:53:34;103890.84;;;1.81;97.99
20630;BME280;17386;43.846;25.950;2024-01-30T05:56:06;103900.13;;;1.75;98.25
20630;BME280;17386;43.846;25.950;2024-01-30T05:58:31;103899.22;;;1.74;98.33
20630;BME280;17386;43.846;25.950;2024-01-30T06:00:57;103897.44;;;1.73;98.63
20630;BME280;17386;43.846;25.950;2024-01-30T06:03:23;103899.97;;;1.72;99.11
20630;BME280;17386;43.846;25.950;2024-01-30T06:05:48;103903.41;;;1.71;99.20
20630;BME280;17386;43.846;25.950;2024-01-30T06:08:13;103901.38;;;1.65;99.74
20630;BME280;17386;43.846;25.950;2024-01-30T06:10:39;103898.00;;;1.68;99.92
20630;BME280;17386;43.846;25.950;2024-01-30T06:13:05;103895.53;;;1.71;100.00
20630;BME280;17386;43.846;25.950;2024-01-30T06:15:30;103905.47;;;1.60;99.94
20630;BME280;17386;43.846;25.950;2024-01-30T06:17:58;103910.88;;;1.63;99.94
20630;BME280;17386;43.846;25.950;2024-01-30T06:20:23;103907.84;;;1.55;100.00
20630;BME280;17386;43.846;25.950;2024-01-30T06:22:48;103912.53;;;1.61;100.00
20630;BME280;17386;43.846;25.950;2024-01-30T06:25:14;103918.97;;;1.68;100.00
20630;BME280;17386;43.846;25.950;2024-01-30T06:27:39;103917.13;;;1.65;100.00
20630;BME280;17386;43.846;25.950;2024-01-30T06:30:05;103920.44;;;1.62;100.00
20630;BME280;17386;43.846;25.950;2024-01-30T06:32:31;103921.53;;;1.66;100.00
20630;BME280;17386;43.846;25.950;2024-01-30T06:35:00;103928.16;;;1.59;100.00
20630;BME280;17386;43.846;25.950;2024-01-30T06:37:25;103921.94;;;1.57;100.00
20630;BME280;17386;43.846;25.950;2024-01-30T06:39:51;103925.94;;;1.67;99.74
20630;BME280;17386;43.846;25.950;2024-01-30T06:42:17;103913.66;;;1.66;99.19
20630;BME280;17386;43.846;25.950;2024-01-30T06:44:43;103925.13;;;1.68;98.65
20630;BME280;17386;43.846;25.950;2024-01-30T06:47:09;103922.81;;;1.74;98.64
20630;BME280;17386;43.846;25.950;2024-01-30T06:49:34;103927.56;;;1.81;98.44
20630;BME280;17386;43.846;25.950;2024-01-30T06:52:00;103935.81;;;1.89;97.93
20630;BME280;17386;43.846;25.950;2024-01-30T06:54:25;103933.50;;;1.95;97.76
20630;BME280;17386;43.846;25.950;2024-01-30T06:56:51;103924.97;;;1.99;97.48
20630;BME280;17386;43.846;25.950;2024-01-30T06:59:16;103929.09;;;1.94;96.63
20630;BME280;17386;43.846;25.950;2024-01-30T07:01:42;103933.56;;;1.97;96.41
20630;BME280;17386;43.846;25.950;2024-01-30T07:04:07;103932.75;;;1.98;95.58
20630;BME280;17386;43.846;25.950;2024-01-30T07:06:32;103927.03;;;1.88;95.08
20630;BME280;17386;43.846;25.950;2024-01-30T07:08:58;103940.78;;;2.01;94.94
20630;BME280;17386;43.846;25.950;2024-01-30T07:11:23;103936.50;;;2.03;95.03
20630;BME280;17386;43.846;25.950;2024-01-30T07:13:52;103928.50;;;2.00;94.03
20630;BME280;17386;43.846;25.950;2024-01-30T07:16:17;103935.91;;;2.08;94.27
20630;BME280;17386;43.846;25.950;2024-01-30T07:18:43;103937.84;;;2.12;93.91
20630;BME280;17386;43.846;25.950;2024-01-30T07:21:08;103929.34;;;2.16;93.98
20630;BME280;17386;43.846;25.950;2024-01-30T07:23:34;103934.81;;;2.21;93.69
20630;BME280;17386;43.846;25.950;2024-01-30T07:26:01;103935.13;;;2.27;93.48
20630;BME280;17386;43.846;25.950;2024-01-30T07:28:26;103931.59;;;2.27;93.65
20630;BME280;17386;43.846;25.950;2024-01-30T07:30:52;103936.31;;;2.34;93.41
20630;BME280;17386;43.846;25.950;2024-01-30T07:33:17;103936.75;;;2.25;93.35
20630;BME280;17386;43.846;25.950;2024-01-30T07:35:43;103930.25;;;2.35;93.49
20630;BME280;17386;43.846;25.950;2024-01-30T07:38:08;103936.59;;;2.40;92.87
20630;BME280;17386;43.846;25.950;2024-01-30T07:40:34;103915.78;;;2.43;92.67
20630;BME280;17386;43.846;25.950;2024-01-30T07:42:59;103929.25;;;2.51;92.62
20630;BME280;17386;43.846;25.950;2024-01-30T07:45:26;103934.56;;;2.70;92.89
20630;BME280;17386;43.846;25.950;2024-01-30T07:47:53;103926.22;;;2.79;92.35
20630;BME280;17386;43.846;25.950;2024-01-30T07:50:18;103926.53;;;2.85;92.04
20630;BME280;17386;43.846;25.950;2024-01-30T07:52:44;103926.19;;;2.96;91.28
20630;BME280;17386;43.846;25.950;2024-01-30T07:55:09;103929.19;;;3.04;90.54
20630;BME280;17386;43.846;25.950;2024-01-30T07:57:35;103936.53;;;2.93;89.51
20630;BME280;17386;43.846;25.950;2024-01-30T08:00:03;103939.34;;;2.96;90.22
20630;BME280;17386;43.846;25.950;2024-01-30T08:02:30;103930.84;;;3.02;90.44
20630;BME280;17386;43.846;25.950;2024-01-30T08:04:56;103931.22;;;2.92;90.17
20630;BME280;17386;43.846;25.950;2024-01-30T08:07:21;103928.91;;;2.98;90.38
20630;BME280;17386;43.846;25.950;2024-01-30T08:09:47;103931.59;;;3.19;90.07
20630;BME280;17386;43.846;25.950;2024-01-30T08:12:13;103928.00;;;3.36;89.19
20630;BME280;17386;43.846;25.950;2024-01-30T08:14:39;103927.81;;;3.32;88.63
20630;BME280;17386;43.846;25.950;2024-01-30T08:17:05;103932.72;;;3.43;88.28
20630;BME280;17386;43.846;25.950;2024-01-30T08:19:30;103928.09;;;3.57;87.94
20630;BME280;17386;43.846;25.950;2024-01-30T08:21:55;103916.22;;;3.67;87.34
20630;BME280;17386;43.846;25.950;2024-01-30T08:24:21;103935.75;;;3.72;86.76
20630;BME280;17386;43.846;25.950;2024-01-30T08:26:46;103922.66;;;3.73;86.35
20630;BME280;17386;43.846;25.950;2024-01-30T08:29:12;103937.88;;;3.61;86.62
20630;BME280;17386;43.846;25.950;2024-01-30T08:31:37;103925.91;;;3.68;86.81
20630;BME280;17386;43.846;25.950;2024-01-30T08:34:03;103929.28;;;3.84;86.45
20630;BME280;17386;43.846;25.950;2024-01-30T08:36:28;103927.34;;;4.01;85.66
20630;BME280;17386;43.846;25.950;2024-01-30T08:38:53;103930.69;;;3.97;85.08
20630;BME280;17386;43.846;25.950;2024-01-30T08:41:19;103931.94;;;4.05;84.84
20630;BME280;17386;43.846;25.950;2024-01-30T08:43:44;103933.78;;;4.08;84.98
20630;BME280;17386;43.846;25.950;2024-01-30T08:46:10;103943.34;;;4.27;84.68
20630;BME280;17386;43.846;25.950;2024-01-30T08:48:36;103934.38;;;4.44;84.60
20630;BME280;17386;43.846;25.950;2024-01-30T08:51:01;103928.13;;;4.85;83.31
20630;BME280;17386;43.846;25.950;2024-01-30T08:53:27;103933.31;;;5.29;80.98
20630;BME280;17386;43.846;25.950;2024-01-30T08:55:52;103930.03;;;5.60;79.42
20630;BME280;17386;43.846;25.950;2024-01-30T08:58:17;103929.81;;;5.78;78.86
20630;BME280;17386;43.846;25.950;2024-01-30T09:00:44;103935.31;;;5.84;77.45
20630;BME280;17386;43.846;25.950;2024-01-30T09:03:09;103935.47;;;5.90;76.77
20630;BME280;17386;43.846;25.950;2024-01-30T09:05:35;103929.94;;;6.06;76.44
20630;BME280;17386;43.846;25.950;2024-01-30T09:08:00;103937.00;;;6.07;75.55
20630;BME280;17386;43.846;25.950;2024-01-30T09:10:26;103924.44;;;6.25;75.22
20630;BME280;17386;43.846;25.950;2024-01-30T09:12:52;103921.91;;;6.57;73.47
20630;BME280;17386;43.846;25.950;2024-01-30T09:15:17;103919.28;;;6.85;73.02
20630;BME280;17386;43.846;25.950;2024-01-30T09:17:44;103921.41;;;6.97;72.30
20630;BME280;17386;43.846;25.950;2024-01-30T09:20:10;103922.19;;;7.23;71.16
20630;BME280;17386;43.846;25.950;2024-01-30T09:22:35;103922.47;;;7.34;69.63
20630;BME280;17386;43.846;25.950;2024-01-30T09:25:01;103922.94;;;7.19;69.90
20630;BME280;17386;43.846;25.950;2024-01-30T09:27:26;103928.25;;;6.91;69.33
20630;BME280;17386;43.846;25.950;2024-01-30T09:29:51;103920.28;;;6.89;70.75
20630;BME280;17386;43.846;25.950;2024-01-30T09:32:17;103913.75;;;6.49;71.70
20630;BME280;17386;43.846;25.950;2024-01-30T09:34:43;103911.81;;;6.72;71.41
20630;BME280;17386;43.846;25.950;2024-01-30T09:37:08;103913.69;;;6.75;71.25
20630;BME280;17386;43.846;25.950;2024-01-30T09:39:33;103909.31;;;6.48;71.71
20630;BME280;17386;43.846;25.950;2024-01-30T09:42:09;103910.69;;;6.93;71.49
20630;BME280;17386;43.846;25.950;2024-01-30T09:44:37;103911.94;;;6.75;70.21
20630;BME280;17386;43.846;25.950;2024-01-30T09:47:03;103903.81;;;6.69;70.08
20630;BME280;17386;43.846;25.950;2024-01-30T09:49:34;103899.94;;;6.58;71.06
20630;BME280;17386;43.846;25.950;2024-01-30T09:52:01;103900.19;;;6.66;70.91
20630;BME280;17386;43.846;25.950;2024-01-30T09:54:30;103896.31;;;6.83;71.08
20630;BME280;17386;43.846;25.950;2024-01-30T09:56:56;103891.31;;;7.22;69.53
20630;BME280;17386;43.846;25.950;2024-01-30T09:59:21;103890.56;;;7.59;68.82
20630;BME280;17386;43.846;25.950;2024-01-30T10:01:47;103888.91;;;7.63;67.35
20630;BME280;17386;43.846;25.950;2024-01-30T10:04:13;103893.31;;;7.97;66.89
20630;BME280;17386;43.846;25.950;2024-01-30T10:06:40;103902.47;;;8.44;64.86
20630;BME280;17386;43.846;25.950;2024-01-30T10:09:05;103889.88;;;9.16;61.55
20630;BME280;17386;43.846;25.950;2024-01-30T10:11:31;103881.50;;;9.40;60.62
20630;BME280;17386;43.846;25.950;2024-01-30T10:13:56;103877.34;;;9.07;60.21
20630;BME280;17386;43.846;25.950;2024-01-30T10:16:22;103873.94;;;8.72;60.38
20630;BME280;17386;43.846;25.950;2024-01-30T10:18:47;103879.16;;;8.31;60.69
20630;BME280;17386;43.846;25.950;2024-01-30T10:21:12;103876.81;;;8.43;60.11
20630;BME280;17386;43.846;25.950;2024-01-30T10:23:38;103866.16;;;8.80;60.44
20630;BME280;17386;43.846;25.950;2024-01-30T10:26:04;103867.41;;;8.98;60.64
20630;BME280;17386;43.846;25.950;2024-01-30T10:28:29;103872.22;;;9.18;59.43
20630;BME280;17386;43.846;25.950;2024-01-30T10:31:01;103870.16;;;9.01;59.87
20630;BME280;17386;43.846;25.950;2024-01-30T10:33:29;103872.13;;;9.58;59.27
20630;BME280;17386;43.846;25.950;2024-01-30T10:36:03;103861.78;;;10.24;57.25
20630;BME280;17386;43.846;25.950;2024-01-30T10:38:30;103856.97;;;10.59;55.31
20630;BME280;17386;43.846;25.950;2024-01-30T10:41:00;103855.91;;;11.14;53.31
20630;BME280;17386;43.846;25.950;2024-01-30T10:43:35;103853.63;;;10.75;52.87
20630;BME280;17386;43.846;25.950;2024-01-30T10:46:13;103849.38;;;10.86;53.03
20630;BME280;17386;43.846;25.950;2024-01-30T10:48:42;103840.66;;;11.01;52.58
20630;BME280;17386;43.846;25.950;2024-01-30T10:51:10;103836.31;;;11.09;52.67
20630;BME280;17386;43.846;25.950;2024-01-30T10:53:37;103830.53;;;11.50;51.72
20630;BME280;17386;43.846;25.950;2024-01-30T10:56:04;103839.63;;;11.70;50.27
20630;BME280;17386;43.846;25.950;2024-01-30T10:58:30;103825.34;;;11.61;49.83
20630;BME280;17386;43.846;25.950;2024-01-30T11:00:55;103818.06;;;11.43;50.64
20630;BME280;17386;43.846;25.950;2024-01-30T11:03:21;103819.56;;;11.16;50.55
20630;BME280;17386;43.846;25.950;2024-01-30T11:05:50;103820.72;;;10.65;50.96
20630;BME280;17386;43.846;25.950;2024-01-30T11:08:23;103816.50;;;10.21;52.36
20630;BME280;17386;43.846;25.950;2024-01-30T11:10:49;103816.69;;;9.75;53.54
20630;BME280;17386;43.846;25.950;2024-01-30T11:13:15;103812.66;;;9.00;56.15
20630;BME280;17386;43.846;25.950;2024-01-30T11:15:41;103811.94;;;8.65;56.92
20630;BME280;17386;43.846;25.950;2024-01-30T11:18:06;103808.84;;;8.08;58.91
20630;BME280;17386;43.846;25.950;2024-01-30T11:20:33;103804.66;;;8.17;59.42
20630;BME280;17386;43.846;25.950;2024-01-30T11:23:01;103805.25;;;8.06;60.37
20630;BME280;17386;43.846;25.950;2024-01-30T11:25:31;103807.59;;;7.93;60.46
20630;BME280;17386;43.846;25.950;2024-01-30T11:27:57;103802.81;;;7.77;61.33
20630;BME280;17386;43.846;25.950;2024-01-30T11:30:30;103804.78;;;7.51;59.83
20630;BME280;17386;43.846;25.950;2024-01-30T11:35:24;103790.16;;;7.31;60.28
20630;BME280;17386;43.846;25.950;2024-01-30T11:37:49;103787.88;;;7.13;59.53
20630;BME280;17386;43.846;25.950;2024-01-30T11:40:16;103789.94;;;6.92;60.65
20630;BME280;17386;43.846;25.950;2024-01-30T11:42:42;103789.22;;;6.97;61.17
20630;BME280;17386;43.846;25.950;2024-01-30T11:45:08;103778.81;;;7.03;61.64
20630;BME280;17386;43.846;25.950;2024-01-30T11:47:35;103786.72;;;7.02;60.92
20630;BME280;17386;43.846;25.950;2024-01-30T11:50:02;103780.69;;;6.76;60.60
20630;BME280;17386;43.846;25.950;2024-01-30T11:52:28;103785.06;;;6.74;60.80
20630;BME280;17386;43.846;25.950;2024-01-30T11:54:54;103787.19;;;6.57;60.66
20630;BME280;17386;43.846;25.950;2024-01-30T11:57:20;103777.22;;;6.47;60.89
20630;BME280;17386;43.846;25.950;2024-01-30T11:59:45;103782.28;;;6.39;61.88
20630;BME280;17386;43.846;25.950;2024-01-30T12:02:15;103772.88;;;6.49;61.94
20630;BME280;17386;43.846;25.950;2024-01-30T12:04:40;103774.13;;;6.62;61.81
20630;BME280;17386;43.846;25.950;2024-01-30T12:07:06;103769.56;;;6.56;61.58
20630;BME280;17386;43.846;25.950;2024-01-30T12:09:32;103762.91;;;6.70;61.28
20630;BME280;17386;43.846;25.950;2024-01-30T12:11:57;103759.97;;;6.60;60.54
20630;BME280;17386;43.846;25.950;2024-01-30T12:14:23;103760.50;;;6.78;60.84
20630;BME280;17386;43.846;25.950;2024-01-30T12:16:50;103763.09;;;6.76;59.69
20630;BME280;17386;43.846;25.950;2024-01-30T12:19:23;103759.63;;;6.79;59.61
20630;BME280;17386;43.846;25.950;2024-01-30T12:21:57;103746.53;;;6.82;58.81
20630;BME280;17386;43.846;25.950;2024-01-30T12:24:25;103743.69;;;6.76;59.52
20630;BME280;17386;43.846;25.950;2024-01-30T12:26:51;103747.47;;;6.85;58.90
20630;BME280;17386;43.846;25.950;2024-01-30T12:29:17;103751.41;;;6.68;58.29
20630;BME280;17386;43.846;25.950;2024-01-30T12:31:42;103747.03;;;6.69;58.95
20630;BME280;17386;43.846;25.950;2024-01-30T12:34:09;103741.59;;;6.64;58.86
20630;BME280;17386;43.846;25.950;2024-01-30T12:36:35;103740.84;;;6.68;59.18
20630;BME280;17386;43.846;25.950;2024-01-30T12:39:01;103740.19;;;6.77;59.01
20630;BME280;17386;43.846;25.950;2024-01-30T12:41:26;103734.88;;;6.75;58.92
20630;BME280;17386;43.846;25.950;2024-01-30T12:43:56;103737.66;;;6.80;58.56